Time;durP1;ratioP1;P1;durP2;ratioP2;P2;SDS_P1;SDS_P2;PMS_P1;PMS_P2;Temp;Humidity;BMP_temperature;BMP_pressure;BME280_temperature;BME280_humidity;BME280_pressure;Samples;Min_cycle;Max_cycle;Signal;HPM_P1;HPM_P2
2021/05/31 00:01:30;;;;;;;5.47;4.63;;;;;;;14.97;58.85;100626.41;4979511;28;20525;-55
2021/05/31 00:04:02;;;;;;;8.10;4.47;;;;;;;14.95;58.44;100624.66;4996005;28;20489;-55
2021/05/31 00:06:43;;;;;;;7.20;5.32;;;;;;;14.91;58.70;100622.03;4996952;28;20034;-55
2021/05/31 00:09:13;;;;;;;6.68;4.85;;;;;;;14.91;58.48;100621.16;4996553;28;20049;-55
2021/05/31 00:11:46;;;;;;;5.95;4.70;;;;;;;14.89;58.41;100628.09;4997313;28;20034;-55
2021/05/31 00:14:15;;;;;;;6.23;4.40;;;;;;;14.86;58.68;100622.84;4995871;28;20035;-55
2021/05/31 00:16:42;;;;;;;5.88;4.18;;;;;;;14.85;58.74;100629.81;4979170;28;20285;-55
2021/05/31 00:19:15;;;;;;;8.50;4.78;;;;;;;14.83;58.76;100620.22;4995218;28;20120;-55
2021/05/31 00:21:46;;;;;;;6.60;5.13;;;;;;;14.80;58.66;100623.69;4979161;28;20486;-55
2021/05/31 00:24:15;;;;;;;8.85;5.55;;;;;;;14.80;58.92;100623.69;4996798;28;20061;-55
2021/05/31 00:26:43;;;;;;;7.15;4.85;;;;;;;14.77;58.77;100618.44;4996594;28;20048;-55
2021/05/31 00:29:16;;;;;;;7.22;5.22;;;;;;;14.75;58.77;100625.38;4996113;28;20038;-55
2021/05/31 00:31:47;;;;;;;6.32;5.05;;;;;;;14.72;59.03;100618.41;4995321;28;20045;-55
2021/05/31 00:34:16;;;;;;;6.32;4.95;;;;;;;14.72;58.91;100617.50;4995240;28;20101;-55
2021/05/31 00:36:45;;;;;;;7.07;5.15;;;;;;;14.69;58.93;100626.19;4978962;28;20042;-55
2021/05/31 00:39:12;;;;;;;6.60;5.03;;;;;;;14.67;59.02;100617.44;4978919;28;20058;-56
2021/05/31 00:41:49;;;;;;;6.95;5.13;;;;;;;14.66;58.87;100620.06;4978969;28;20034;-55
2021/05/31 00:44:20;;;;;;;8.15;5.53;;;;;;;14.64;59.15;100611.34;4995253;28;20042;-55
2021/05/31 00:46:47;;;;;;;6.60;5.45;;;;;;;14.65;59.00;100613.94;4996202;28;20101;-55
2021/05/31 00:49:18;;;;;;;8.07;5.70;;;;;;;14.62;59.01;100614.81;4995826;28;20089;-55
2021/05/31 00:51:44;;;;;;;6.68;4.90;;;;;;;14.62;58.73;100609.59;4995278;28;20401;-55
2021/05/31 00:54:17;;;;;;;12.38;5.35;;;;;;;14.60;59.08;100608.69;4994802;28;20030;-55
2021/05/31 00:56:46;;;;;;;8.50;5.50;;;;;;;14.59;59.24;100606.94;4995826;28;20038;-55
2021/05/31 00:59:17;;;;;;;10.60;5.93;;;;;;;14.60;59.05;100613.06;4995877;28;20030;-55
2021/05/31 01:01:47;;;;;;;10.55;5.00;;;;;;;14.59;58.96;100609.56;4994757;28;20116;-55
2021/05/31 01:04:16;;;;;;;7.30;4.85;;;;;;;14.59;59.21;100608.69;4995910;28;20038;-55
2021/05/31 01:06:54;;;;;;;6.93;5.97;;;;;;;14.58;59.18;100609.56;4995676;28;20042;-55
2021/05/31 01:09:33;;;;;;;7.07;5.78;;;;;;;14.57;59.25;100606.06;4994408;28;20034;-55
2021/05/31 01:12:10;;;;;;;8.85;5.88;;;;;;;14.56;59.24;100604.31;4996224;28;20692;-55
2021/05/31 01:14:59;;;;;;;5.53;4.93;;;;;;;14.54;59.36;100606.06;4994661;28;20093;-55
2021/05/31 01:17:37;;;;;;;11.00;5.07;;;;;;;14.53;58.92;100598.19;4955465;28;20145;-55
2021/05/31 01:20:38;;;;;;;8.02;5.78;;;;;;;14.51;59.27;100605.13;4994388;28;20478;-55
2021/05/31 01:23:16;;;;;;;7.30;5.55;;;;;;;14.50;59.22;100608.59;4995477;28;20042;-55
2021/05/31 01:26:12;;;;;;;7.10;5.20;;;;;;;14.48;59.19;100599.91;4978099;28;20042;-55
2021/05/31 01:29:00;;;;;;;6.60;5.47;;;;;;;14.44;59.02;100599.88;4995006;28;20097;-55
2021/05/31 01:31:44;;;;;;;8.60;5.10;;;;;;;14.45;59.20;100603.34;4994009;28;20045;-55
2021/05/31 01:34:19;;;;;;;9.55;5.38;;;;;;;14.42;59.51;100605.91;4994046;28;20038;-55
2021/05/31 01:36:54;;;;;;;7.60;5.82;;;;;;;14.40;59.13;100603.31;4994086;28;20468;-55
2021/05/31 01:39:28;;;;;;;11.02;5.43;;;;;;;14.39;59.13;100604.16;4978439;28;20401;-55
2021/05/31 01:41:59;;;;;;;10.30;5.72;;;;;;;14.39;59.53;100595.50;4994103;28;20034;-55
2021/05/31 01:44:30;;;;;;;8.80;5.63;;;;;;;14.38;59.27;100593.75;4977925;28;20042;-55
2021/05/31 01:47:01;;;;;;;10.80;6.47;;;;;;;14.36;59.37;100592.84;4993612;28;20532;-55
2021/05/31 01:49:33;;;;;;;10.18;5.88;;;;;;;14.36;59.43;100592.84;4994928;28;20048;-55
2021/05/31 01:52:06;;;;;;;7.30;6.13;;;;;;;14.34;59.48;100587.59;4994955;28;20129;-55
2021/05/31 01:54:38;;;;;;;7.88;5.82;;;;;;;14.35;59.42;100585.88;4995023;28;20074;-55
2021/05/31 01:57:11;;;;;;;;;;;;;;;14.30;59.03;100588.47;4994030;28;20064;-55
2021/05/31 01:59:47;;;;;;;7.05;5.70;;;;;;;14.28;59.64;100588.41;4994441;28;20297;-55
2021/05/31 02:02:21;;;;;;;9.55;5.70;;;;;;;14.28;59.59;100591.03;4977197;28;20053;-55
2021/05/31 02:04:51;;;;;;;7.20;6.03;;;;;;;14.27;59.44;100591.88;4993804;28;20034;-54
2021/05/31 02:07:20;;;;;;;9.80;5.18;;;;;;;14.24;59.67;100581.44;4994625;28;20489;-54
2021/05/31 02:09:48;;;;;;;7.57;5.80;;;;;;;14.24;59.61;100585.78;4992905;28;20042;-53
2021/05/31 02:12:32;;;;;;;7.47;5.70;;;;;;;14.22;59.57;100588.38;4993047;28;20038;-55
2021/05/31 02:15:10;;;;;;;7.15;5.40;;;;;;;14.22;59.75;100590.09;4994085;28;20034;-54
2021/05/31 02:18:04;;;;;;;6.47;5.45;;;;;;;14.16;59.32;100591.81;4993583;28;20125;-54
2021/05/31 02:20:37;;;;;;;9.02;5.72;;;;;;;14.15;59.79;100592.66;4993232;28;20038;-54
2021/05/31 02:23:08;;;;;;;6.93;5.70;;;;;;;14.13;59.65;100588.28;4993310;28;20093;-54
2021/05/31 02:25:38;;;;;;;6.75;5.47;;;;;;;14.12;59.45;100583.91;4977506;28;20045;-54
2021/05/31 02:28:15;;;;;;;7.28;5.47;;;;;;;14.08;59.79;100585.63;4993439;28;20038;-53
2021/05/31 02:30:52;;;;;;;5.70;4.90;;;;;;;14.09;59.60;100591.72;4977267;28;20481;-54
2021/05/31 02:33:27;;;;;;;7.63;5.03;;;;;;;14.09;59.95;100586.50;4992725;28;20104;-54
2021/05/31 02:36:01;;;;;;;6.75;5.40;;;;;;;14.06;59.75;100579.53;4994310;28;20034;-54
2021/05/31 02:38:33;;;;;;;6.60;5.43;;;;;;;14.06;59.81;100592.56;4994465;28;20030;-55
2021/05/31 02:41:01;;;;;;;7.72;5.95;;;;;;;14.06;59.86;100594.28;4993017;28;20045;-54
2021/05/31 02:43:26;;;;;;;7.25;5.68;;;;;;;14.07;59.77;100591.69;4992928;28;20497;-54
2021/05/31 02:45:58;;;;;;;10.45;6.45;;;;;;;14.06;59.72;100589.09;4992965;28;20053;-54
2021/05/31 02:48:36;;;;;;;9.55;6.18;;;;;;;14.04;59.67;100601.22;4993296;28;20077;-54
2021/05/31 02:51:07;;;;;;;12.93;6.60;;;;;;;14.04;59.98;100594.25;4992895;28;20035;-56
2021/05/31 02:53:41;;;;;;;8.55;6.40;;;;;;;14.02;59.85;100598.56;4993165;28;20038;-55
2021/05/31 02:56:13;;;;;;;7.35;5.90;;;;;;;14.01;59.79;100599.47;4993255;28;20041;-56
2021/05/31 02:58:44;;;;;;;8.35;5.85;;;;;;;13.99;59.80;100599.44;4992344;28;20045;-56
2021/05/31 03:01:14;;;;;;;7.18;5.30;;;;;;;13.97;59.92;100589.84;4993729;28;20046;-57
2021/05/31 03:03:48;;;;;;;7.90;5.53;;;;;;;13.96;59.93;100590.72;4976853;28;20034;-54
2021/05/31 03:06:16;;;;;;;10.63;5.95;;;;;;;13.95;59.77;100589.81;4976509;28;20066;-54
2021/05/31 03:08:55;;;;;;;10.10;6.00;;;;;;;13.93;60.04;100595.88;4992848;28;20035;-54
2021/05/31 03:11:26;;;;;;;8.35;6.22;;;;;;;13.90;59.51;100594.13;4994096;28;20516;-54
2021/05/31 03:13:57;;;;;;;8.32;6.05;;;;;;;13.90;59.85;100588.91;4992914;28;20533;-54
2021/05/31 03:16:31;;;;;;;9.95;5.93;;;;;;;13.90;60.15;100593.25;4976745;28;20096;-54
2021/05/31 03:19:07;;;;;;;9.80;6.53;;;;;;;13.90;60.20;100588.03;4992651;28;20493;-54
2021/05/31 03:21:35;;;;;;;9.27;5.85;;;;;;;13.89;60.11;100587.16;4993914;28;20045;-54
2021/05/31 03:24:03;;;;;;;7.32;5.90;;;;;;;13.85;60.17;100585.38;4993097;28;20042;-54
2021/05/31 03:26:40;;;;;;;14.07;6.57;;;;;;;13.85;59.93;100587.97;4992937;28;20045;-54
2021/05/31 03:29:13;;;;;;;10.40;6.47;;;;;;;13.84;59.86;100594.06;4992624;28;20043;-53
2021/05/31 03:31:41;;;;;;;9.40;5.93;;;;;;;13.82;60.04;100591.44;4992551;28;20405;-54
2021/05/31 03:34:12;;;;;;;8.82;6.45;;;;;;;13.81;60.00;100594.91;4993999;28;20070;-54
2021/05/31 03:36:41;;;;;;;7.97;6.32;;;;;;;13.82;60.49;100599.25;4992939;28;20130;-55
2021/05/31 03:39:10;;;;;;;9.93;6.85;;;;;;;13.80;60.09;100594.88;4992299;28;20117;-53
2021/05/31 03:41:40;;;;;;;10.23;6.28;;;;;;;13.79;60.12;100600.94;4992458;28;20089;-54
2021/05/31 03:44:14;;;;;;;13.13;6.75;;;;;;;13.77;60.24;100595.72;4993260;28;20132;-54
2021/05/31 03:46:45;;;;;;;12.95;7.28;;;;;;;13.76;60.10;100596.56;4977553;28;20065;-54
2021/05/31 03:49:21;;;;;;;11.13;6.85;;;;;;;13.75;60.35;100597.41;4992257;28;20057;-54
2021/05/31 03:51:52;;;;;;;9.55;6.45;;;;;;;13.73;60.43;100593.91;4993541;28;20042;-54
2021/05/31 03:54:20;;;;;;;14.73;6.93;;;;;;;13.74;60.20;100598.28;4996250;28;20038;-54
2021/05/31 03:56:55;;;;;;;9.98;5.95;;;;;;;13.72;59.96;100597.38;4995819;28;20042;-54
2021/05/31 03:59:24;;;;;;;12.93;7.60;;;;;;;13.72;60.22;100591.31;4995608;28;20126;-53
2021/05/31 04:01:52;;;;;;;8.50;6.72;;;;;;;13.70;60.17;100601.72;4997419;28;20051;-54
2021/05/31 04:04:23;;;;;;;8.43;5.57;;;;;;;13.69;60.55;100592.16;4995830;28;20081;-53
2021/05/31 04:11:33;;;;;;;9.15;6.63;;;;;;;13.69;60.52;100598.22;4979641;28;20049;-54
2021/05/31 04:12:26;;;;;;;10.55;6.60;;;;;;;13.68;60.60;100599.09;4996950;28;20157;-54
2021/05/31 04:14:54;;;;;;;14.05;7.05;;;;;;;13.68;60.44;100596.47;4979256;28;20039;-53
2021/05/31 04:17:22;;;;;;;16.27;7.82;;;;;;;13.69;60.25;100608.66;4979134;28;20046;-54
2021/05/31 04:19:53;;;;;;;17.17;7.13;;;;;;;13.70;60.51;100609.53;4995174;28;20031;-53
2021/05/31 04:22:22;;;;;;;21.50;8.32;;;;;;;13.70;60.41;100610.41;4995994;28;20049;-54
2021/05/31 04:24:52;;;;;;;22.17;8.93;;;;;;;13.72;60.59;100604.34;4995687;28;20049;-54
2021/05/31 04:27:22;;;;;;;13.93;8.40;;;;;;;13.71;60.42;100600.84;4995583;28;20042;-54
2021/05/31 04:29:53;;;;;;;12.82;6.88;;;;;;;13.72;60.45;100604.34;4995013;28;20034;-54
2021/05/31 04:32:21;;;;;;;16.73;6.75;;;;;;;13.73;60.72;100608.69;4996333;28;20041;-54
2021/05/31 04:34:47;;;;;;;20.40;8.30;;;;;;;13.73;60.51;100606.09;4995417;28;20027;-54
2021/05/31 04:37:19;;;;;;;21.45;9.73;;;;;;;13.73;60.63;100603.47;4995491;28;20056;-54
2021/05/31 04:39:47;;;;;;;19.55;7.72;;;;;;;13.74;60.42;100605.22;4979048;28;20035;-54
2021/05/31 04:42:15;;;;;;;20.52;8.27;;;;;;;13.75;60.46;100609.59;4995192;28;20471;-54
2021/05/31 04:44:43;;;;;;;18.38;8.80;;;;;;;13.75;60.80;100605.22;4996318;28;20045;-54
2021/05/31 04:47:12;;;;;;;18.58;8.25;;;;;;;13.76;60.41;100601.78;4995872;28;20454;-54
2021/05/31 04:49:43;;;;;;;14.30;7.63;;;;;;;13.76;60.64;100606.13;4995425;28;20125;-54
2021/05/31 04:52:13;;;;;;;20.30;9.00;;;;;;;13.77;60.76;100603.53;4994905;28;20520;-54
2021/05/31 04:54:47;;;;;;;18.52;8.88;;;;;;;13.77;60.99;100605.28;4978759;28;20133;-54
2021/05/31 04:57:15;;;;;;;22.25;8.70;;;;;;;13.77;60.80;100597.47;4996194;28;20121;-53
2021/05/31 04:59:44;;;;;;;18.77;8.70;;;;;;;13.77;60.70;100595.72;4995690;28;20038;-54
2021/05/31 05:02:14;;;;;;;24.95;8.98;;;;;;;13.77;60.66;100600.91;4994908;28;20085;-54
2021/05/31 05:04:42;;;;;;;21.30;9.68;;;;;;;13.79;60.76;100599.22;4977663;28;20030;-53
2021/05/31 05:07:12;;;;;;;24.35;8.57;;;;;;;13.82;60.70;100598.38;4996123;28;20038;-53
2021/05/31 05:09:43;;;;;;;23.88;9.65;;;;;;;13.81;60.76;100591.41;4994365;28;20038;-53
2021/05/31 05:12:11;;;;;;;20.45;7.85;;;;;;;13.81;60.94;100597.50;4978301;28;20089;-54
2021/05/31 05:14:37;;;;;;;21.15;8.25;;;;;;;13.83;60.98;100592.31;4978914;28;20119;-54
2021/05/31 05:17:05;;;;;;;23.48;9.18;;;;;;;13.84;60.85;100600.16;4995651;28;20113;-54
2021/05/31 05:19:34;;;;;;;30.63;9.68;;;;;;;13.84;61.04;100600.16;4978153;28;20030;-54
2021/05/31 05:22:02;;;;;;;25.63;8.60;;;;;;;13.86;60.97;100600.16;4994218;28;20042;-54
2021/05/31 05:24:30;;;;;;;21.85;8.95;;;;;;;13.86;61.24;100605.38;4995816;28;20038;-53
2021/05/31 05:27:06;;;;;;;16.50;8.43;;;;;;;13.86;60.88;100603.63;4995355;28;20161;-53
2021/05/31 05:29:34;;;;;;;18.08;8.63;;;;;;;13.86;60.82;100611.44;4995319;28;20042;-54
2021/05/31 05:32:03;;;;;;;22.83;9.32;;;;;;;13.87;60.98;100601.91;4994282;28;20077;-54
2021/05/31 05:34:29;;;;;;;21.20;7.70;;;;;;;13.88;60.86;100595.84;4995322;28;20085;-54
2021/05/31 05:37:08;;;;;;;18.88;9.23;;;;;;;13.91;61.18;100600.19;4994249;28;20046;-54
2021/05/31 05:45:27;;;;;;;17.70;8.32;;;;;;;13.94;61.04;100603.72;4993912;28;20034;-54
2021/05/31 05:47:53;;;;;;;18.35;8.40;;;;;;;13.96;60.79;100598.53;4994135;28;20046;-54
2021/05/31 05:50:22;;;;;;;24.92;9.02;;;;;;;13.96;60.87;100602.00;4993722;28;20034;-53
2021/05/31 05:52:51;;;;;;;17.95;7.38;;;;;;;13.98;60.96;100599.44;4995229;28;20046;-53
2021/05/31 05:55:20;;;;;;;19.17;7.90;;;;;;;13.99;61.14;100603.78;4993722;28;20030;-53
2021/05/31 05:57:46;;;;;;;15.60;7.43;;;;;;;14.00;60.86;100609.00;4994904;28;20099;-54
2021/05/31 06:00:23;;;;;;;15.75;7.35;;;;;;;13.99;61.04;100604.63;4994864;28;20486;-53
2021/05/31 06:02:49;;;;;;;12.13;6.93;;;;;;;14.03;61.09;100609.91;4994356;28;20047;-54
2021/05/31 06:05:15;;;;;;;18.48;7.30;;;;;;;14.06;61.08;100607.31;4994700;28;20049;-54
2021/05/31 06:07:43;;;;;;;14.32;6.93;;;;;;;14.09;61.16;100612.59;4994846;28;20038;-53
2021/05/31 06:10:12;;;;;;;14.25;6.50;;;;;;;14.12;61.05;100613.47;4993504;28;20508;-53
2021/05/31 06:12:37;;;;;;;12.60;8.10;;;;;;;14.14;61.14;100609.16;4993224;28;20420;-54
2021/05/31 06:15:10;;;;;;;9.55;5.75;;;;;;;14.16;60.87;100611.78;4993541;28;20097;-54
2021/05/31 06:17:38;;;;;;;10.05;5.75;;;;;;;14.17;61.07;100608.31;4994887;28;20126;-54
2021/05/31 06:20:08;;;;;;;11.95;6.03;;;;;;;14.21;61.27;100611.81;4994549;28;20034;-54
2021/05/31 06:22:40;;;;;;;17.50;6.78;;;;;;;14.22;61.36;100614.44;4993416;28;20037;-53
2021/05/31 06:25:13;;;;;;;10.15;5.38;;;;;;;14.25;61.20;100600.56;4994072;28;20038;-54
2021/05/31 06:27:46;;;;;;;10.32;5.95;;;;;;;14.28;61.08;100611.88;4993955;28;20050;-54
2021/05/31 06:30:14;;;;;;;12.00;6.10;;;;;;;14.29;61.29;100603.22;4993318;28;20041;-54
2021/05/31 06:32:43;;;;;;;12.05;6.25;;;;;;;14.32;61.32;100605.84;4993332;28;20037;-53
2021/05/31 06:35:15;;;;;;;8.20;5.00;;;;;;;14.34;61.03;100605.84;4993072;28;20133;-54
2021/05/31 06:37:41;;;;;;;13.50;5.38;;;;;;;14.37;61.31;100603.28;4994302;28;20039;-54
2021/05/31 06:40:12;;;;;;;13.07;6.63;;;;;;;14.41;61.51;100604.16;4992778;28;20038;-54
2021/05/31 06:42:43;;;;;;;10.50;5.07;;;;;;;14.40;61.14;100595.50;4992830;28;20470;-54
2021/05/31 06:45:16;;;;;;;9.30;5.65;;;;;;;14.44;60.95;100604.22;4994096;28;20046;-53
2021/05/31 06:47:43;;;;;;;14.27;6.37;;;;;;;14.46;61.26;100597.28;4994248;28;20050;-53
2021/05/31 06:50:13;;;;;;;10.77;5.88;;;;;;;14.46;60.93;100599.88;4993885;28;20807;-54
2021/05/31 06:52:44;;;;;;;13.40;5.32;;;;;;;14.49;61.09;100597.31;4992835;28;20066;-54
2021/05/31 06:55:13;;;;;;;7.43;5.45;;;;;;;14.52;61.21;100607.78;4994075;28;20450;-54
2021/05/31 06:57:41;;;;;;;11.05;6.00;;;;;;;14.53;60.98;100598.19;4992807;28;20037;-53
2021/05/31 07:00:12;;;;;;;17.58;5.97;;;;;;;14.55;61.31;100602.59;4993052;28;20045;-54
2021/05/31 07:02:38;;;;;;;15.85;5.93;;;;;;;14.55;61.26;100597.38;4993912;28;20426;-53
2021/05/31 07:05:11;;;;;;;9.38;5.28;;;;;;;14.56;60.95;100586.06;4993694;28;20096;-54
2021/05/31 07:07:38;;;;;;;10.05;5.72;;;;;;;14.59;61.15;100593.91;4993731;28;20113;-54
2021/05/31 07:10:11;;;;;;;9.93;5.40;;;;;;;14.60;60.85;100593.03;4994081;28;20038;-54
2021/05/31 07:12:42;;;;;;;8.32;6.00;;;;;;;14.61;61.03;100588.72;4994521;28;20038;-53
2021/05/31 07:15:12;;;;;;;12.15;5.75;;;;;;;14.62;61.02;100596.53;4992425;28;20406;-54
2021/05/31 07:17:40;;;;;;;9.00;5.28;;;;;;;14.64;61.08;100593.06;4976432;28;20034;-54
2021/05/31 07:20:12;;;;;;;8.23;5.05;;;;;;;14.66;61.25;100593.97;4994141;28;20044;-54
2021/05/31 07:22:42;;;;;;;9.20;5.43;;;;;;;14.67;61.09;100591.34;4993138;28;20073;-54
2021/05/31 07:25:15;;;;;;;11.77;4.93;;;;;;;14.68;60.93;100592.28;4993365;28;20038;-54
2021/05/31 07:27:47;;;;;;;6.57;5.18;;;;;;;14.70;61.05;100594.03;4995579;28;20540;-53
2021/05/31 07:30:19;;;;;;;15.52;4.70;;;;;;;14.71;60.94;100584.50;4996163;28;20088;-54
2021/05/31 07:32:46;;;;;;;9.27;4.50;;;;;;;14.72;60.80;100579.28;4997008;28;20030;-54
2021/05/31 07:35:15;;;;;;;8.18;4.43;;;;;;;14.74;60.77;100592.31;4996316;28;20092;-55
2021/05/31 07:37:41;;;;;;;9.10;5.18;;;;;;;14.74;60.66;100587.09;4997406;28;20113;-54
2021/05/31 07:40:12;;;;;;;8.07;4.90;;;;;;;14.74;60.68;100582.75;4997487;28;20074;-54
2021/05/31 07:42:42;;;;;;;11.25;4.15;;;;;;;14.76;60.81;100583.66;4997228;28;20034;-54
2021/05/31 07:45:14;;;;;;;10.02;4.13;;;;;;;14.77;60.64;100576.69;4996797;28;20060;-55
2021/05/31 07:47:45;;;;;;;7.97;4.75;;;;;;;14.77;60.61;100574.06;4996286;28;20034;-54
2021/05/31 07:50:15;;;;;;;6.57;3.85;;;;;;;14.78;60.68;100573.22;4996235;28;20038;-54
2021/05/31 07:52:41;;;;;;;6.75;4.50;;;;;;;14.79;60.63;100576.72;4997090;28;20402;-54
2021/05/31 07:55:15;;;;;;;9.02;4.40;;;;;;;14.80;60.45;100570.59;4995660;28;20387;-54
2021/05/31 07:57:43;;;;;;;8.40;4.88;;;;;;;14.81;60.15;100578.47;4996865;28;20045;-55
2021/05/31 08:00:14;;;;;;;8.40;4.55;;;;;;;14.81;60.44;100572.34;4997108;28;20042;-54
2021/05/31 08:02:46;;;;;;;11.18;4.15;;;;;;;14.82;60.20;100575.00;4995668;28;20050;-54
2021/05/31 08:05:15;;;;;;;10.23;4.43;;;;;;;14.82;60.36;100569.78;4997109;28;20038;-54
2021/05/31 08:07:47;;;;;;;11.80;4.70;;;;;;;14.83;60.59;100568.91;4995631;28;20030;-54
2021/05/31 08:10:18;;;;;;;9.82;4.43;;;;;;;14.87;60.43;100572.41;4996054;28;20034;-53
2021/05/31 08:12:47;;;;;;;6.53;4.38;;;;;;;14.87;60.21;100565.44;4996383;28;20045;-56
2021/05/31 08:15:17;;;;;;;5.75;4.30;;;;;;;14.90;60.43;100559.38;4996702;28;20038;-56
2021/05/31 08:17:46;;;;;;;11.65;4.38;;;;;;;14.93;60.37;100567.25;4979116;28;20125;-56
2021/05/31 08:20:15;;;;;;;7.75;4.07;;;;;;;14.96;60.54;100561.16;4995059;28;20038;-54
2021/05/31 08:22:42;;;;;;;8.07;4.40;;;;;;;14.98;60.31;100560.28;4995768;28;20384;-53
2021/05/31 08:25:11;;;;;;;7.10;4.72;;;;;;;14.99;60.29;100567.25;4996259;28;20034;-54
2021/05/31 08:27:43;;;;;;;6.70;3.88;;;;;;;15.02;60.30;100566.44;4995348;28;20035;-56
2021/05/31 08:30:12;;;;;;;8.82;4.25;;;;;;;15.02;60.18;100564.69;4995548;28;20049;-56
2021/05/31 08:32:43;;;;;;;10.32;4.72;;;;;;;15.05;60.13;100561.19;4996657;28;20061;-56
2021/05/31 08:35:13;;;;;;;8.00;4.25;;;;;;;15.07;60.30;100564.69;4995287;28;20406;-56
2021/05/31 08:37:41;;;;;;;7.70;4.18;;;;;;;15.10;60.05;100564.72;4979232;28;20052;-56
2021/05/31 08:40:10;;;;;;;7.35;3.67;;;;;;;15.13;59.93;100564.75;4996314;28;20105;-56
2021/05/31 08:42:42;;;;;;;10.10;4.35;;;;;;;15.17;60.19;100565.63;4978721;28;20214;-56
2021/05/31 08:45:13;;;;;;;8.57;4.65;;;;;;;15.19;60.19;100561.28;4996459;28;20041;-56
2021/05/31 08:47:46;;;;;;;5.72;4.32;;;;;;;15.23;60.12;100561.31;4995960;28;20061;-55
2021/05/31 08:50:17;;;;;;;7.65;4.18;;;;;;;15.27;59.96;100562.19;4995002;28;20478;-57
2021/05/31 08:52:52;;;;;;;7.20;4.32;;;;;;;15.29;60.01;100542.19;4994822;28;20482;-56
2021/05/31 08:55:19;;;;;;;;;;;;;;;15.31;60.13;100548.28;4996537;28;20045;-56
2021/05/31 08:57:47;;;;;;;5.10;3.85;;;;;;;15.34;59.89;100539.59;4995632;28;19921;-55
2021/05/31 09:00:23;;;;;;;6.47;3.92;;;;;;;15.37;59.95;100539.59;4995709;28;20061;-55
2021/05/31 09:02:53;;;;;;;7.05;3.78;;;;;;;15.40;60.03;100538.75;4994924;28;20125;-56
2021/05/31 09:05:40;;;;;;;8.27;4.25;;;;;;;15.43;59.89;100541.38;4995981;28;20043;-55
2021/05/31 09:08:10;;;;;;;11.75;4.53;;;;;;;15.46;59.79;100536.16;4994642;28;20077;-56
2021/05/31 09:10:43;;;;;;;9.02;4.38;;;;;;;15.49;59.76;100542.25;4995718;28;20038;-56
2021/05/31 09:13:10;;;;;;;7.15;4.40;;;;;;;15.51;59.55;100539.66;4994752;28;20049;-54
2021/05/31 09:15:36;;;;;;;7.07;4.22;;;;;;;15.55;59.97;100536.22;4994034;28;20038;-54
2021/05/31 09:18:05;;;;;;;5.72;3.92;;;;;;;15.58;59.76;100540.56;4994245;28;20038;-55
2021/05/31 09:20:36;;;;;;;9.80;5.15;;;;;;;15.61;59.71;100535.34;4994270;28;20185;-55
2021/05/31 09:23:04;;;;;;;10.13;4.30;;;;;;;15.65;59.74;100531.84;4995367;28;20117;-56
2021/05/31 09:25:35;;;;;;;5.93;4.28;;;;;;;15.68;59.56;100539.72;4994444;28;20034;-55
2021/05/31 09:28:12;;;;;;;7.30;4.18;;;;;;;15.70;59.67;100534.50;4995353;28;20034;-56
2021/05/31 09:30:43;;;;;;;7.40;4.70;;;;;;;15.74;59.54;100517.94;4995293;28;20359;-56
2021/05/31 09:33:16;;;;;;;7.68;5.35;;;;;;;15.78;59.46;100519.72;4993893;28;20030;-54
2021/05/31 09:35:44;;;;;;;6.90;4.00;;;;;;;15.81;59.48;100517.09;4995287;28;20038;-54
2021/05/31 09:38:15;;;;;;;5.22;4.07;;;;;;;15.83;59.50;100516.22;4994318;28;20088;-56
2021/05/31 09:40:50;;;;;;;5.15;4.53;;;;;;;15.87;59.57;100517.16;4995044;28;20410;-55
2021/05/31 09:43:26;;;;;;;8.10;4.32;;;;;;;15.90;59.38;100516.28;4995254;28;20104;-55
2021/05/31 09:45:56;;;;;;;6.47;4.40;;;;;;;15.92;59.30;100509.31;4994973;28;20030;-55
2021/05/31 09:48:32;;;;;;;8.27;4.97;;;;;;;15.92;59.31;100501.47;4994859;28;20043;-55
2021/05/31 09:51:01;;;;;;;8.75;4.65;;;;;;;15.94;59.22;100510.19;4995036;28;20038;-55
2021/05/31 09:53:37;;;;;;;8.80;5.15;;;;;;;15.95;59.22;100509.34;4977977;28;20038;-56
2021/05/31 09:56:13;;;;;;;9.35;5.10;;;;;;;15.99;58.83;100505.81;4993876;28;20066;-55
2021/05/31 09:58:46;;;;;;;8.95;5.00;;;;;;;16.03;59.10;100509.34;4977251;28;20034;-55
2021/05/31 10:01:12;;;;;;;10.75;5.80;;;;;;;16.05;58.96;100504.97;4993766;28;20046;-55
2021/05/31 10:03:56;;;;;;;6.50;5.15;;;;;;;16.06;59.17;100501.47;4993291;28;20057;-55
2021/05/31 10:06:44;;;;;;;11.02;5.20;;;;;;;16.08;59.41;100498.00;4993356;28;20074;-55
2021/05/31 10:09:17;;;;;;;5.43;4.63;;;;;;;16.07;59.04;100488.44;4994688;28;20058;-56
2021/05/31 10:11:46;;;;;;;10.82;5.60;;;;;;;16.08;59.00;100491.91;4993798;28;20049;-56
2021/05/31 10:14:17;;;;;;;8.00;4.63;;;;;;;16.09;59.09;100488.41;4994247;28;20097;-55
2021/05/31 10:16:47;;;;;;;6.03;4.40;;;;;;;16.11;58.77;100490.19;4993087;28;20552;-55
2021/05/31 10:19:16;;;;;;;10.23;4.95;;;;;;;16.11;58.99;100484.94;4994068;28;20508;-56
2021/05/31 10:21:46;;;;;;;6.10;4.10;;;;;;;16.12;58.88;100483.19;4993270;28;20049;-55
2021/05/31 10:24:14;;;;;;;5.53;4.75;;;;;;;16.11;58.76;100479.72;4977040;28;20030;-55
2021/05/31 10:26:43;;;;;;;7.35;4.15;;;;;;;16.12;58.74;100476.19;4994620;28;20508;-55
2021/05/31 10:29:11;;;;;;;7.38;4.57;;;;;;;16.13;58.62;100482.31;4994018;28;20176;-56
2021/05/31 10:31:46;;;;;;;8.85;4.65;;;;;;;16.14;58.66;100471.84;4993057;28;20076;-55
2021/05/31 10:34:20;;;;;;;5.70;4.25;;;;;;;16.14;58.63;100479.69;4993768;28;20425;-55
2021/05/31 10:36:50;;;;;;;8.95;4.65;;;;;;;16.16;58.54;100470.97;4993996;28;20035;-55
2021/05/31 10:39:26;;;;;;;13.25;5.32;;;;;;;16.17;58.53;100465.78;4994441;28;20042;-55
2021/05/31 10:42:08;;;;;;;9.52;5.07;;;;;;;16.22;58.57;100468.38;4994491;28;20046;-55
2021/05/31 10:44:41;;;;;;;7.45;4.32;;;;;;;16.25;58.43;100463.16;4993497;28;20045;-55
2021/05/31 10:47:18;;;;;;;8.90;4.60;;;;;;;16.27;58.24;100453.56;4993349;28;20050;-55
2021/05/31 10:49:53;;;;;;;10.73;4.75;;;;;;;16.28;58.06;100453.53;4993302;28;20042;-55
2021/05/31 10:52:19;;;;;;;5.53;4.15;;;;;;;16.27;58.29;100461.41;4994625;28;20061;-55
2021/05/31 10:54:50;;;;;;;9.38;4.03;;;;;;;16.30;58.22;100466.59;4992580;28;20038;-55
2021/05/31 10:57:21;;;;;;;5.70;4.20;;;;;;;16.31;57.83;100463.13;4992398;28;20113;-55
2021/05/31 10:59:51;;;;;;;6.23;4.10;;;;;;;16.33;57.98;100457.91;4994646;28;20500;-55
2021/05/31 11:02:25;;;;;;;8.15;4.55;;;;;;;16.34;58.09;100449.19;4996165;28;20093;-56
2021/05/31 11:04:51;;;;;;;6.85;4.32;;;;;;;16.37;58.10;100464.84;4997041;28;20034;-55
2021/05/31 11:07:28;;;;;;;6.35;4.45;;;;;;;16.39;58.06;100452.66;4996939;28;20045;-56
2021/05/31 11:09:59;;;;;;;9.55;4.53;;;;;;;16.37;58.16;100450.06;4997766;28;20053;-55
2021/05/31 11:12:33;;;;;;;5.88;4.22;;;;;;;16.40;57.99;100450.06;4997718;28;20030;-55
2021/05/31 11:15:11;;;;;;;8.30;4.18;;;;;;;16.42;57.95;100455.28;4997864;28;20041;-55
2021/05/31 11:17:51;;;;;;;10.52;4.43;;;;;;;16.43;57.96;100449.16;4997407;28;20034;-55
2021/05/31 11:20:21;;;;;;;6.75;5.03;;;;;;;16.46;58.05;100450.91;4997351;28;20042;-54
2021/05/31 11:22:57;;;;;;;7.35;4.80;;;;;;;16.47;57.97;100439.56;4998012;28;20034;-54
2021/05/31 11:25:26;;;;;;;;;;;;;;;16.49;57.88;100440.44;4980969;28;20097;-54
2021/05/31 11:28:05;;;;;;;7.22;4.32;;;;;;;16.52;57.80;100445.66;4998076;28;19914;-55
2021/05/31 11:30:33;;;;;;;5.38;4.28;;;;;;;16.54;57.85;100425.59;4997050;28;20099;-54
2021/05/31 11:33:04;;;;;;;8.43;4.40;;;;;;;16.56;57.94;100434.31;4996102;28;20409;-54
2021/05/31 11:35:31;;;;;;;5.85;4.53;;;;;;;16.57;58.08;100425.59;4997740;28;20034;-56
2021/05/31 11:37:59;;;;;;;8.77;4.80;;;;;;;16.58;57.91;100427.34;4997934;28;20125;-56
2021/05/31 11:40:32;;;;;;;7.70;4.55;;;;;;;16.58;57.69;100427.34;4996495;28;20038;-54
2021/05/31 11:43:05;;;;;;;7.20;5.18;;;;;;;16.60;57.76;100415.09;4996114;28;20042;-55
2021/05/31 11:45:37;;;;;;;6.85;4.47;;;;;;;16.62;57.77;100421.22;4996870;28;20415;-54
2021/05/31 11:48:12;;;;;;;7.97;4.63;;;;;;;16.63;57.65;100411.63;4997591;28;20043;-54
2021/05/31 11:50:41;;;;;;;9.20;4.78;;;;;;;16.64;57.63;100416.84;4996152;28;20100;-54